createdAt,value
2023-03-22T00:01:29.289Z,100.00
2023-03-22T00:03:58.702Z,100.00
2023-03-22T00:06:27.882Z,100.00
2023-03-22T00:08:56.970Z,100.00
2023-03-22T00:11:26.573Z,100.00
2023-03-22T00:13:55.559Z,100.00
2023-03-22T00:16:24.534Z,100.00
2023-03-22T00:18:53.639Z,100.00
2023-03-22T00:21:23.366Z,100.00
2023-03-22T00:23:52.571Z,100.00
2023-03-22T00:26:21.173Z,100.00
2023-03-22T00:28:50.499Z,100.00
2023-03-22T00:31:20.294Z,100.00
2023-03-22T00:33:50.294Z,100.00
2023-03-22T00:36:19.074Z,100.00
2023-03-22T00:38:52.365Z,100.00
2023-03-22T00:41:23.267Z,100.00
2023-03-22T00:43:52.595Z,100.00
2023-03-22T00:46:22.271Z,100.00
2023-03-22T00:48:51.018Z,100.00
2023-03-22T00:51:20.226Z,100.00
2023-03-22T00:53:54.410Z,100.00
2023-03-22T00:56:26.069Z,100.00
2023-03-22T00:59:24.661Z,100.00
2023-03-22T01:01:53.237Z,100.00
2023-03-22T01:04:26.486Z,100.00
2023-03-22T01:06:59.828Z,100.00
2023-03-22T01:09:31.389Z,100.00
2023-03-22T01:12:02.230Z,100.00
2023-03-22T01:14:32.220Z,100.00
2023-03-22T01:17:01.054Z,100.00
2023-03-22T01:19:29.904Z,100.00
2023-03-22T01:21:58.576Z,100.00
2023-03-22T01:24:27.680Z,100.00
2023-03-22T01:26:56.886Z,100.00
2023-03-22T01:29:26.088Z,100.00
2023-03-22T01:31:54.966Z,100.00
2023-03-22T01:34:23.847Z,100.00
2023-03-22T01:36:52.941Z,100.00
2023-03-22T01:39:22.042Z,100.00
2023-03-22T01:41:52.373Z,100.00
2023-03-22T01:44:23.057Z,100.00
2023-03-22T01:46:53.020Z,100.00
2023-03-22T01:49:31.818Z,100.00
2023-03-22T01:52:07.521Z,100.00
2023-03-22T01:55:12.990Z,100.00
2023-03-22T01:57:46.128Z,100.00
2023-03-22T02:00:19.210Z,100.00
2023-03-22T02:03:03.612Z,100.00
2023-03-22T02:05:37.690Z,100.00
2023-03-22T02:08:07.188Z,100.00
2023-03-22T02:10:52.170Z,100.00
2023-03-22T02:13:29.241Z,100.00
2023-03-22T02:16:35.411Z,100.00
2023-03-22T02:19:31.265Z,100.00
2023-03-22T02:22:30.423Z,100.00
2023-03-22T02:25:21.229Z,100.00
2023-03-22T02:27:52.673Z,100.00
2023-03-22T02:30:43.063Z,100.00
2023-03-22T02:33:45.743Z,100.00
2023-03-22T02:36:32.957Z,100.00
2023-03-22T02:39:27.046Z,100.00
2023-03-22T02:42:21.642Z,100.00
2023-03-22T02:45:02.623Z,100.00
2023-03-22T02:47:38.996Z,100.00
2023-03-22T02:50:20.568Z,100.00
2023-03-22T02:52:54.690Z,100.00
2023-03-22T02:55:38.026Z,100.00
2023-03-22T02:58:15.601Z,100.00
2023-03-22T03:00:49.868Z,100.00
2023-03-22T03:03:19.942Z,100.00
2023-03-22T03:05:55.119Z,100.00
2023-03-22T03:08:24.489Z,100.00
2023-03-22T03:10:54.414Z,100.00
2023-03-22T03:13:23.480Z,100.00
2023-03-22T03:15:57.500Z,100.00
2023-03-22T03:18:32.947Z,100.00
2023-03-22T03:21:17.522Z,100.00
2023-03-22T03:24:21.940Z,100.00
2023-03-22T03:26:58.765Z,100.00
2023-03-22T03:29:32.704Z,100.00
2023-03-22T03:32:16.986Z,100.00
2023-03-22T03:34:55.626Z,100.00
2023-03-22T03:37:29.514Z,100.00
2023-03-22T03:40:11.481Z,100.00
2023-03-22T03:42:44.255Z,100.00
2023-03-22T03:45:14.304Z,100.00
2023-03-22T03:47:47.626Z,100.00
2023-03-22T03:50:16.782Z,100.00
2023-03-22T03:52:45.769Z,100.00
2023-03-22T03:55:14.575Z,100.00
2023-03-22T03:57:43.451Z,100.00
2023-03-22T04:00:17.245Z,100.00
2023-03-22T04:02:55.484Z,100.00
2023-03-22T04:05:45.179Z,100.00
2023-03-22T04:08:14.043Z,100.00
2023-03-22T04:10:42.624Z,100.00
2023-03-22T04:13:11.533Z,100.00
2023-03-22T04:15:40.804Z,100.00
2023-03-22T04:18:11.693Z,100.00
2023-03-22T04:20:42.093Z,100.00
2023-03-22T04:23:11.459Z,100.00
2023-03-22T04:25:40.678Z,100.00
2023-03-22T04:28:14.161Z,100.00
2023-03-22T04:30:46.258Z,100.00
2023-03-22T04:33:39.667Z,100.00
2023-03-22T04:36:18.960Z,100.00
2023-03-22T04:39:06.353Z,100.00
2023-03-22T04:41:36.308Z,100.00
2023-03-22T04:44:07.123Z,100.00
2023-03-22T04:46:38.561Z,100.00
2023-03-22T04:49:08.276Z,100.00
2023-03-22T04:51:39.614Z,100.00
2023-03-22T04:54:43.932Z,100.00
2023-03-22T04:57:14.160Z,100.00
2023-03-22T04:59:45.914Z,100.00
2023-03-22T05:02:14.910Z,100.00
2023-03-22T05:04:45.924Z,100.00
2023-03-22T05:07:29.989Z,100.00
2023-03-22T05:10:01.756Z,100.00
2023-03-22T05:12:31.055Z,100.00
2023-03-22T05:15:15.938Z,100.00
2023-03-22T05:17:45.315Z,100.00
2023-03-22T05:20:15.237Z,100.00
2023-03-22T05:22:45.763Z,100.00
2023-03-22T05:25:14.439Z,100.00
2023-03-22T05:27:45.488Z,100.00
2023-03-22T05:30:35.414Z,100.00
2023-03-22T05:33:10.196Z,100.00
2023-03-22T05:35:44.164Z,100.00
2023-03-22T05:38:13.204Z,100.00
2023-03-22T05:40:46.815Z,100.00
2023-03-22T05:43:16.007Z,100.00
2023-03-22T05:45:48.464Z,100.00
2023-03-22T05:48:49.834Z,100.00
2023-03-22T05:51:20.361Z,100.00
2023-03-22T05:53:52.926Z,100.00
2023-03-22T05:56:25.259Z,100.00
2023-03-22T05:59:02.391Z,100.00
2023-03-22T06:01:34.365Z,100.00
2023-03-22T06:04:16.395Z,100.00
2023-03-22T06:06:54.369Z,100.00
2023-03-22T06:09:56.123Z,100.00
2023-03-22T06:12:28.833Z,100.00
2023-03-22T06:15:04.122Z,100.00
2023-03-22T06:17:54.018Z,100.00
2023-03-22T06:20:26.077Z,100.00
2023-03-22T06:23:01.227Z,100.00
2023-03-22T06:25:30.005Z,100.00
2023-03-22T06:27:59.436Z,100.00
2023-03-22T06:30:28.731Z,100.00
2023-03-22T06:33:11.327Z,100.00
2023-03-22T06:35:42.264Z,100.00
2023-03-22T06:38:12.384Z,100.00
2023-03-22T06:40:41.526Z,100.00
2023-03-22T06:43:10.652Z,100.00
2023-03-22T06:45:40.929Z,100.00
2023-03-22T06:48:09.755Z,100.00
2023-03-22T06:50:54.459Z,100.00
2023-03-22T06:53:30.613Z,100.00
2023-03-22T06:55:59.608Z,100.00
2023-03-22T06:58:28.984Z,100.00
2023-03-22T07:00:58.668Z,100.00
2023-03-22T07:03:28.228Z,100.00
2023-03-22T07:06:08.390Z,100.00
2023-03-22T07:08:39.996Z,100.00
2023-03-22T07:11:09.409Z,100.00
2023-03-22T07:13:39.301Z,100.00
2023-03-22T07:16:12.260Z,100.00
2023-03-22T07:18:51.540Z,100.00
2023-03-22T07:21:20.548Z,100.00
2023-03-22T07:23:53.533Z,100.00
2023-03-22T07:26:22.810Z,100.00
2023-03-22T07:28:51.839Z,100.00
2023-03-22T07:31:21.845Z,100.00
2023-03-22T07:34:07.635Z,100.00
2023-03-22T07:36:43.171Z,100.00
2023-03-22T07:39:13.028Z,100.00
2023-03-22T07:41:45.363Z,100.00
2023-03-22T07:44:37.603Z,100.00
2023-03-22T07:47:12.119Z,100.00
2023-03-22T07:49:48.477Z,100.00
2023-03-22T07:52:21.562Z,100.00
2023-03-22T07:54:51.577Z,100.00
2023-03-22T07:57:20.691Z,100.00
2023-03-22T07:59:54.894Z,100.00
2023-03-22T08:02:25.336Z,100.00
2023-03-22T08:04:56.587Z,100.00
2023-03-22T08:07:46.277Z,100.00
2023-03-22T08:10:16.250Z,100.00
2023-03-22T08:12:45.255Z,100.00
2023-03-22T08:15:24.494Z,100.00
2023-03-22T08:17:53.375Z,100.00
2023-03-22T08:20:32.312Z,99.30
2023-03-22T08:23:03.769Z,98.88
2023-03-22T08:26:05.939Z,96.11
2023-03-22T08:28:37.784Z,93.45
2023-03-22T08:31:15.396Z,93.44
2023-03-22T08:33:45.499Z,92.28
2023-03-22T08:36:17.969Z,92.27
2023-03-22T08:38:53.941Z,92.28
2023-03-22T08:41:27.239Z,91.71
2023-03-22T08:43:56.729Z,92.15
2023-03-22T08:46:25.354Z,90.60
2023-03-22T08:48:54.401Z,90.30
2023-03-22T08:51:32.001Z,87.28
2023-03-22T08:54:14.414Z,86.76
2023-03-22T08:56:56.526Z,86.73
2023-03-22T08:59:37.790Z,87.19
2023-03-22T09:02:27.226Z,86.35
2023-03-22T09:04:57.081Z,86.10
2023-03-22T09:07:26.373Z,85.44
2023-03-22T09:10:20.872Z,85.97
2023-03-22T09:12:49.965Z,85.31
2023-03-22T09:15:19.157Z,84.92
2023-03-22T09:17:51.222Z,83.94
2023-03-22T09:20:25.756Z,83.57
2023-03-22T09:22:55.755Z,83.65
2023-03-22T09:25:24.847Z,83.76
2023-03-22T09:27:54.054Z,84.12
2023-03-22T09:30:22.745Z,82.81
2023-03-22T09:32:51.940Z,82.74
2023-03-22T09:35:22.249Z,81.29
2023-03-22T09:38:06.552Z,80.99
2023-03-22T09:40:36.888Z,79.06
2023-03-22T09:43:08.428Z,79.84
2023-03-22T09:45:42.316Z,79.60
2023-03-22T09:48:20.168Z,80.19
2023-03-22T09:50:54.163Z,77.48
2023-03-22T09:53:26.004Z,77.43
2023-03-22T09:55:59.761Z,77.72
2023-03-22T09:58:57.213Z,76.83
2023-03-22T10:01:57.499Z,75.53
2023-03-22T10:04:55.837Z,75.67
2023-03-22T10:07:37.937Z,75.97
2023-03-22T10:10:19.302Z,75.26
2023-03-22T10:13:01.009Z,74.14
2023-03-22T10:15:40.908Z,74.12
2023-03-22T10:18:17.109Z,74.28
2023-03-22T10:21:04.603Z,73.80
2023-03-22T10:23:57.478Z,74.00
2023-03-22T10:26:40.042Z,73.61
2023-03-22T10:29:16.054Z,73.78
2023-03-22T10:31:46.526Z,73.72
2023-03-22T10:34:22.866Z,73.42
2023-03-22T10:36:53.389Z,73.29
2023-03-22T10:39:27.456Z,72.56
2023-03-22T10:41:58.216Z,72.22
2023-03-22T10:44:29.573Z,72.84
2023-03-22T10:47:00.678Z,73.01
2023-03-22T10:49:33.113Z,72.87
2023-03-22T10:52:30.968Z,72.85
2023-03-22T10:55:03.693Z,73.18
2023-03-22T10:57:33.250Z,72.34
2023-03-22T11:00:08.789Z,71.82
2023-03-22T11:02:46.600Z,70.88
2023-03-22T11:05:30.547Z,71.00
2023-03-22T11:07:59.749Z,71.95
2023-03-22T11:10:33.103Z,71.67
2023-03-22T11:13:07.955Z,71.76
2023-03-22T11:15:44.056Z,71.52
2023-03-22T11:18:16.212Z,71.17
2023-03-22T11:20:57.425Z,71.05
2023-03-22T11:23:26.567Z,71.10
2023-03-22T11:25:57.701Z,71.39
2023-03-22T11:28:36.359Z,71.90
2023-03-22T11:31:13.705Z,71.30
2023-03-22T11:34:00.637Z,69.68
2023-03-22T11:36:30.216Z,70.04
2023-03-22T11:39:01.644Z,69.19
2023-03-22T11:41:32.733Z,67.08
2023-03-22T11:44:05.349Z,68.68
2023-03-22T11:46:36.569Z,69.36
2023-03-22T11:49:10.086Z,69.10
2023-03-22T11:51:40.187Z,68.83
2023-03-22T11:54:16.407Z,68.34
2023-03-22T11:56:47.678Z,68.82
2023-03-22T12:08:10.180Z,66.70
2023-03-22T12:10:41.763Z,66.97
2023-03-22T12:13:17.014Z,66.59
2023-03-22T12:15:50.081Z,66.61
2023-03-22T12:18:39.555Z,66.08
2023-03-22T12:21:11.333Z,65.33
2023-03-22T12:23:40.780Z,64.78
2023-03-22T12:26:13.252Z,63.49
2023-03-22T12:28:54.639Z,63.03
2023-03-22T12:31:43.075Z,63.30
2023-03-22T12:34:20.249Z,61.77
2023-03-22T12:36:55.516Z,60.95
2023-03-22T12:39:35.872Z,61.59
2023-03-22T12:42:47.937Z,61.70
2023-03-22T12:45:29.059Z,62.61
2023-03-22T12:48:11.198Z,60.89
2023-03-22T12:51:13.528Z,60.03
2023-03-22T12:53:49.307Z,60.00
2023-03-22T12:56:25.507Z,59.03
2023-03-22T12:59:02.184Z,58.93
2023-03-22T13:01:30.988Z,58.88
2023-03-22T13:04:00.613Z,59.01
2023-03-22T13:06:56.881Z,59.88
2023-03-22T13:09:29.228Z,59.05
2023-03-22T13:12:19.178Z,58.84
2023-03-22T13:14:51.264Z,59.60
2023-03-22T13:17:24.981Z,59.05
2023-03-22T13:19:56.440Z,58.63
2023-03-22T13:22:30.453Z,59.78
2023-03-22T13:25:09.047Z,60.18
2023-03-22T13:27:51.263Z,60.89
2023-03-22T13:30:27.459Z,59.84
2023-03-22T13:33:10.509Z,59.72
2023-03-22T13:36:01.198Z,59.92
2023-03-22T13:38:34.790Z,59.28
2023-03-22T13:41:20.019Z,60.36
2023-03-22T13:43:52.919Z,60.73
2023-03-22T13:46:22.458Z,60.33
2023-03-22T13:48:55.414Z,60.15
2023-03-22T13:51:30.628Z,59.82
2023-03-22T13:54:14.672Z,60.42
2023-03-22T13:57:01.533Z,58.66
2023-03-22T14:00:13.384Z,58.54
2023-03-22T14:02:45.952Z,59.19
2023-03-22T14:05:18.828Z,56.77
2023-03-22T14:07:52.061Z,56.58
2023-03-22T14:10:41.775Z,57.53
2023-03-22T14:13:38.446Z,58.31
2023-03-22T14:16:34.733Z,59.24
2023-03-22T14:19:07.158Z,57.66
2023-03-22T14:21:39.892Z,56.37
